sensor_id;sensor_type;location;lat;lon;timestamp;P1;durP1;ratioP1;P2;durP2;ratioP2
41817;SDS011;27493;51.730;5.294;2023-05-10T00:00:49;79.43;;;26.97;;
41817;SDS011;27493;51.730;5.294;2023-05-10T00:03:15;73.67;;;26.47;;
41817;SDS011;27493;51.730;5.294;2023-05-10T00:05:40;80.37;;;28.57;;
41817;SDS011;27493;51.730;5.294;2023-05-10T00:08:06;71.07;;;25.70;;
41817;SDS011;27493;51.730;5.294;2023-05-10T00:10:31;74.27;;;27.50;;
41817;SDS011;27493;51.730;5.294;2023-05-10T00:12:56;78.33;;;26.50;;
41817;SDS011;27493;51.730;5.294;2023-05-10T00:15:21;71.77;;;26.73;;
41817;SDS011;27493;51.730;5.294;2023-05-10T00:17:46;72.00;;;26.77;;
41817;SDS011;27493;51.730;5.294;2023-05-10T00:20:12;72.60;;;27.07;;
41817;SDS011;27493;51.730;5.294;2023-05-10T00:22:37;70.57;;;26.47;;
41817;SDS011;27493;51.730;5.294;2023-05-10T00:25:02;73.73;;;26.00;;
41817;SDS011;27493;51.730;5.294;2023-05-10T00:27:27;73.00;;;26.60;;
41817;SDS011;27493;51.730;5.294;2023-05-10T00:29:52;70.47;;;26.43;;
41817;SDS011;27493;51.730;5.294;2023-05-10T00:32:18;70.63;;;27.23;;
41817;SDS011;27493;51.730;5.294;2023-05-10T00:34:43;66.40;;;26.50;;
41817;SDS011;27493;51.730;5.294;2023-05-10T00:37:08;75.30;;;26.33;;
41817;SDS011;27493;51.730;5.294;2023-05-10T00:39:33;71.23;;;26.07;;
41817;SDS011;27493;51.730;5.294;2023-05-10T00:41:58;67.93;;;25.97;;
41817;SDS011;27493;51.730;5.294;2023-05-10T00:44:25;70.43;;;26.17;;
41817;SDS011;27493;51.730;5.294;2023-05-10T00:46:50;67.50;;;26.23;;
41817;SDS011;27493;51.730;5.294;2023-05-10T00:49:15;74.43;;;26.77;;
41817;SDS011;27493;51.730;5.294;2023-05-10T00:51:41;71.83;;;26.53;;
41817;SDS011;27493;51.730;5.294;2023-05-10T00:54:08;72.97;;;26.80;;
41817;SDS011;27493;51.730;5.294;2023-05-10T00:56:33;77.17;;;29.73;;
41817;SDS011;27493;51.730;5.294;2023-05-10T00:58:58;76.07;;;29.57;;
41817;SDS011;27493;51.730;5.294;2023-05-10T01:01:24;73.87;;;28.83;;
41817;SDS011;27493;51.730;5.294;2023-05-10T01:03:50;74.57;;;29.53;;
41817;SDS011;27493;51.730;5.294;2023-05-10T01:06:15;80.40;;;30.67;;
41817;SDS011;27493;51.730;5.294;2023-05-10T01:08:40;72.17;;;31.10;;
41817;SDS011;27493;51.730;5.294;2023-05-10T01:11:05;74.77;;;30.40;;
41817;SDS011;27493;51.730;5.294;2023-05-10T01:13:37;80.23;;;30.90;;
41817;SDS011;27493;51.730;5.294;2023-05-10T01:16:03;81.67;;;29.80;;
41817;SDS011;27493;51.730;5.294;2023-05-10T01:18:29;70.17;;;30.07;;
41817;SDS011;27493;51.730;5.294;2023-05-10T01:20:59;73.73;;;30.90;;
41817;SDS011;27493;51.730;5.294;2023-05-10T01:29:06;71.40;;;29.40;;
41817;SDS011;27493;51.730;5.294;2023-05-10T01:34:05;74.53;;;30.43;;
41817;SDS011;27493;51.730;5.294;2023-05-10T01:36:32;81.23;;;31.53;;
41817;SDS011;27493;51.730;5.294;2023-05-10T01:46:27;72.80;;;29.10;;
41817;SDS011;27493;51.730;5.294;2023-05-10T01:48:53;76.47;;;29.57;;
41817;SDS011;27493;51.730;5.294;2023-05-10T01:51:22;77.53;;;29.60;;
41817;SDS011;27493;51.730;5.294;2023-05-10T01:53:47;68.73;;;28.73;;
41817;SDS011;27493;51.730;5.294;2023-05-10T01:56:13;72.37;;;30.03;;
41817;SDS011;27493;51.730;5.294;2023-05-10T01:58:39;65.77;;;28.30;;
41817;SDS011;27493;51.730;5.294;2023-05-10T02:01:05;70.43;;;27.93;;
41817;SDS011;27493;51.730;5.294;2023-05-10T02:03:31;79.97;;;28.70;;
41817;SDS011;27493;51.730;5.294;2023-05-10T02:05:57;67.27;;;26.73;;
41817;SDS011;27493;51.730;5.294;2023-05-10T02:08:22;69.43;;;27.07;;
41817;SDS011;27493;51.730;5.294;2023-05-10T02:10:49;63.43;;;25.50;;
41817;SDS011;27493;51.730;5.294;2023-05-10T02:13:15;59.83;;;25.20;;
41817;SDS011;27493;51.730;5.294;2023-05-10T02:15:41;69.13;;;25.10;;
41817;SDS011;27493;51.730;5.294;2023-05-10T02:18:06;69.30;;;26.33;;
41817;SDS011;27493;51.730;5.294;2023-05-10T02:20:32;69.70;;;25.63;;
41817;SDS011;27493;51.730;5.294;2023-05-10T02:22:58;64.60;;;24.10;;
41817;SDS011;27493;51.730;5.294;2023-05-10T02:25:24;62.77;;;25.33;;
41817;SDS011;27493;51.730;5.294;2023-05-10T02:27:50;64.53;;;24.97;;
41817;SDS011;27493;51.730;5.294;2023-05-10T02:30:16;65.83;;;25.60;;
41817;SDS011;27493;51.730;5.294;2023-05-10T02:32:43;67.50;;;25.10;;
41817;SDS011;27493;51.730;5.294;2023-05-10T02:35:08;71.43;;;25.30;;
41817;SDS011;27493;51.730;5.294;2023-05-10T02:37:35;65.27;;;24.73;;
41817;SDS011;27493;51.730;5.294;2023-05-10T02:40:01;65.33;;;25.30;;
41817;SDS011;27493;51.730;5.294;2023-05-10T02:42:28;69.93;;;25.70;;
41817;SDS011;27493;51.730;5.294;2023-05-10T02:44:59;73.93;;;28.80;;
41817;SDS011;27493;51.730;5.294;2023-05-10T02:47:25;73.40;;;29.23;;
41817;SDS011;27493;51.730;5.294;2023-05-10T02:49:50;84.80;;;30.87;;
41817;SDS011;27493;51.730;5.294;2023-05-10T02:52:16;86.10;;;31.87;;
41817;SDS011;27493;51.730;5.294;2023-05-10T02:54:44;81.83;;;31.53;;
41817;SDS011;27493;51.730;5.294;2023-05-10T02:57:11;90.43;;;31.83;;
41817;SDS011;27493;51.730;5.294;2023-05-10T02:59:38;84.20;;;30.67;;
41817;SDS011;27493;51.730;5.294;2023-05-10T03:02:03;82.47;;;32.03;;
41817;SDS011;27493;51.730;5.294;2023-05-10T03:04:28;87.37;;;33.40;;
41817;SDS011;27493;51.730;5.294;2023-05-10T03:06:54;80.53;;;34.60;;
41817;SDS011;27493;51.730;5.294;2023-05-10T03:09:19;81.60;;;35.07;;
41817;SDS011;27493;51.730;5.294;2023-05-10T03:14:27;87.50;;;35.10;;
41817;SDS011;27493;51.730;5.294;2023-05-10T03:17:11;102.70;;;35.43;;
41817;SDS011;27493;51.730;5.294;2023-05-10T03:19:43;85.77;;;33.87;;
41817;SDS011;27493;51.730;5.294;2023-05-10T03:22:10;91.17;;;35.23;;
41817;SDS011;27493;51.730;5.294;2023-05-10T03:24:36;93.50;;;35.17;;
41817;SDS011;27493;51.730;5.294;2023-05-10T03:27:01;82.07;;;34.70;;
41817;SDS011;27493;51.730;5.294;2023-05-10T03:29:29;84.37;;;33.80;;
41817;SDS011;27493;51.730;5.294;2023-05-10T03:31:55;88.60;;;35.70;;
41817;SDS011;27493;51.730;5.294;2023-05-10T03:34:24;87.83;;;35.07;;
41817;SDS011;27493;51.730;5.294;2023-05-10T03:36:49;85.60;;;35.10;;
41817;SDS011;27493;51.730;5.294;2023-05-10T03:39:14;87.60;;;35.20;;
41817;SDS011;27493;51.730;5.294;2023-05-10T03:41:40;82.93;;;34.83;;
41817;SDS011;27493;51.730;5.294;2023-05-10T03:44:05;85.03;;;35.20;;
41817;SDS011;27493;51.730;5.294;2023-05-10T03:46:30;87.90;;;36.43;;
41817;SDS011;27493;51.730;5.294;2023-05-10T03:48:55;85.03;;;34.23;;
41817;SDS011;27493;51.730;5.294;2023-05-10T03:51:20;86.77;;;35.43;;
41817;SDS011;27493;51.730;5.294;2023-05-10T03:53:46;78.30;;;33.10;;
41817;SDS011;27493;51.730;5.294;2023-05-10T03:56:11;81.60;;;34.80;;
41817;SDS011;27493;51.730;5.294;2023-05-10T03:58:36;89.00;;;34.63;;
41817;SDS011;27493;51.730;5.294;2023-05-10T04:01:01;81.00;;;35.07;;
41817;SDS011;27493;51.730;5.294;2023-05-10T04:03:27;81.10;;;33.57;;
41817;SDS011;27493;51.730;5.294;2023-05-10T04:05:59;81.43;;;32.83;;
41817;SDS011;27493;51.730;5.294;2023-05-10T04:08:25;87.03;;;34.30;;
41817;SDS011;27493;51.730;5.294;2023-05-10T04:10:50;83.33;;;33.10;;
41817;SDS011;27493;51.730;5.294;2023-05-10T04:13:15;81.83;;;33.33;;
41817;SDS011;27493;51.730;5.294;2023-05-10T04:15:41;76.43;;;32.87;;
41817;SDS011;27493;51.730;5.294;2023-05-10T04:18:06;84.47;;;34.73;;
41817;SDS011;27493;51.730;5.294;2023-05-10T04:20:32;86.87;;;34.57;;
41817;SDS011;27493;51.730;5.294;2023-05-10T04:22:57;82.70;;;33.70;;
41817;SDS011;27493;51.730;5.294;2023-05-10T04:25:22;94.83;;;36.17;;
41817;SDS011;27493;51.730;5.294;2023-05-10T04:27:47;92.50;;;35.13;;
41817;SDS011;27493;51.730;5.294;2023-05-10T04:30:12;85.87;;;34.03;;
41817;SDS011;27493;51.730;5.294;2023-05-10T04:32:38;96.03;;;36.40;;
41817;SDS011;27493;51.730;5.294;2023-05-10T04:35:03;93.60;;;38.03;;
41817;SDS011;27493;51.730;5.294;2023-05-10T04:37:29;87.63;;;35.47;;
41817;SDS011;27493;51.730;5.294;2023-05-10T04:39:54;90.47;;;34.70;;
41817;SDS011;27493;51.730;5.294;2023-05-10T04:42:20;78.77;;;34.10;;
41817;SDS011;27493;51.730;5.294;2023-05-10T04:44:45;83.77;;;35.37;;
41817;SDS011;27493;51.730;5.294;2023-05-10T04:47:10;85.23;;;34.57;;
41817;SDS011;27493;51.730;5.294;2023-05-10T04:49:36;79.20;;;33.20;;
41817;SDS011;27493;51.730;5.294;2023-05-10T04:52:01;83.83;;;33.17;;
41817;SDS011;27493;51.730;5.294;2023-05-10T04:54:27;88.03;;;35.27;;
41817;SDS011;27493;51.730;5.294;2023-05-10T04:56:52;82.33;;;34.93;;
41817;SDS011;27493;51.730;5.294;2023-05-10T04:59:17;88.37;;;35.97;;
41817;SDS011;27493;51.730;5.294;2023-05-10T05:01:42;85.30;;;33.80;;
41817;SDS011;27493;51.730;5.294;2023-05-10T05:04:08;88.83;;;35.70;;
41817;SDS011;27493;51.730;5.294;2023-05-10T05:06:33;87.97;;;33.17;;
41817;SDS011;27493;51.730;5.294;2023-05-10T05:08:58;86.57;;;34.73;;
41817;SDS011;27493;51.730;5.294;2023-05-10T05:11:23;89.37;;;34.23;;
41817;SDS011;27493;51.730;5.294;2023-05-10T05:13:48;90.97;;;35.13;;
41817;SDS011;27493;51.730;5.294;2023-05-10T05:16:14;90.67;;;35.13;;
41817;SDS011;27493;51.730;5.294;2023-05-10T05:18:39;90.53;;;35.53;;
41817;SDS011;27493;51.730;5.294;2023-05-10T05:21:14;83.73;;;32.90;;
41817;SDS011;27493;51.730;5.294;2023-05-10T05:23:40;80.27;;;32.10;;
41817;SDS011;27493;51.730;5.294;2023-05-10T05:26:05;88.27;;;34.57;;
41817;SDS011;27493;51.730;5.294;2023-05-10T05:28:30;76.67;;;32.70;;
41817;SDS011;27493;51.730;5.294;2023-05-10T05:30:57;66.23;;;31.00;;
41817;SDS011;27493;51.730;5.294;2023-05-10T05:33:23;71.33;;;31.47;;
41817;SDS011;27493;51.730;5.294;2023-05-10T05:35:48;76.77;;;29.57;;
41817;SDS011;27493;51.730;5.294;2023-05-10T05:38:15;65.17;;;29.77;;
41817;SDS011;27493;51.730;5.294;2023-05-10T05:40:41;64.87;;;29.80;;
41817;SDS011;27493;51.730;5.294;2023-05-10T05:43:06;68.87;;;29.30;;
41817;SDS011;27493;51.730;5.294;2023-05-10T05:45:31;65.43;;;29.27;;
41817;SDS011;27493;51.730;5.294;2023-05-10T05:47:56;66.33;;;29.13;;
41817;SDS011;27493;51.730;5.294;2023-05-10T05:50:21;68.87;;;29.43;;
41817;SDS011;27493;51.730;5.294;2023-05-10T05:52:47;66.17;;;28.53;;
41817;SDS011;27493;51.730;5.294;2023-05-10T05:55:12;58.47;;;28.13;;
41817;SDS011;27493;51.730;5.294;2023-05-10T05:57:37;56.83;;;27.70;;
41817;SDS011;27493;51.730;5.294;2023-05-10T06:00:03;62.73;;;28.03;;
41817;SDS011;27493;51.730;5.294;2023-05-10T06:02:29;68.90;;;28.77;;
41817;SDS011;27493;51.730;5.294;2023-05-10T06:04:54;59.10;;;28.57;;
41817;SDS011;27493;51.730;5.294;2023-05-10T06:07:19;60.40;;;27.67;;
41817;SDS011;27493;51.730;5.294;2023-05-10T06:09:45;53.47;;;27.40;;
41817;SDS011;27493;51.730;5.294;2023-05-10T06:12:10;60.07;;;27.70;;
41817;SDS011;27493;51.730;5.294;2023-05-10T06:14:36;57.83;;;26.90;;
41817;SDS011;27493;51.730;5.294;2023-05-10T06:17:01;62.10;;;28.20;;
41817;SDS011;27493;51.730;5.294;2023-05-10T06:19:28;61.50;;;29.37;;
41817;SDS011;27493;51.730;5.294;2023-05-10T06:21:54;69.03;;;30.47;;
41817;SDS011;27493;51.730;5.294;2023-05-10T06:24:19;66.80;;;29.03;;
41817;SDS011;27493;51.730;5.294;2023-05-10T06:26:44;66.37;;;29.63;;
41817;SDS011;27493;51.730;5.294;2023-05-10T06:29:10;68.53;;;30.33;;
41817;SDS011;27493;51.730;5.294;2023-05-10T06:31:35;60.80;;;27.70;;
41817;SDS011;27493;51.730;5.294;2023-05-10T06:34:00;68.53;;;30.63;;
41817;SDS011;27493;51.730;5.294;2023-05-10T06:36:25;70.53;;;31.90;;
41817;SDS011;27493;51.730;5.294;2023-05-10T06:38:52;66.40;;;30.17;;
41817;SDS011;27493;51.730;5.294;2023-05-10T06:41:17;68.00;;;32.87;;
41817;SDS011;27493;51.730;5.294;2023-05-10T06:43:42;73.03;;;34.20;;
41817;SDS011;27493;51.730;5.294;2023-05-10T06:46:08;74.13;;;35.57;;
41817;SDS011;27493;51.730;5.294;2023-05-10T06:48:33;71.03;;;35.73;;
41817;SDS011;27493;51.730;5.294;2023-05-10T06:51:01;74.83;;;36.97;;
41817;SDS011;27493;51.730;5.294;2023-05-10T06:53:27;78.43;;;38.13;;
41817;SDS011;27493;51.730;5.294;2023-05-10T06:55:52;79.30;;;37.30;;
41817;SDS011;27493;51.730;5.294;2023-05-10T06:58:17;74.10;;;35.40;;
41817;SDS011;27493;51.730;5.294;2023-05-10T07:00:42;77.00;;;36.50;;
41817;SDS011;27493;51.730;5.294;2023-05-10T07:03:09;78.90;;;34.70;;
41817;SDS011;27493;51.730;5.294;2023-05-10T07:05:34;80.53;;;36.03;;
41817;SDS011;27493;51.730;5.294;2023-05-10T07:07:59;78.47;;;35.87;;
41817;SDS011;27493;51.730;5.294;2023-05-10T07:10:25;76.20;;;34.57;;
41817;SDS011;27493;51.730;5.294;2023-05-10T07:12:50;82.27;;;34.20;;
41817;SDS011;27493;51.730;5.294;2023-05-10T07:15:15;74.50;;;34.57;;
41817;SDS011;27493;51.730;5.294;2023-05-10T07:17:40;80.07;;;35.00;;
41817;SDS011;27493;51.730;5.294;2023-05-10T07:20:06;75.70;;;34.00;;
41817;SDS011;27493;51.730;5.294;2023-05-10T07:22:31;80.60;;;35.07;;
41817;SDS011;27493;51.730;5.294;2023-05-10T07:24:57;81.03;;;34.30;;
41817;SDS011;27493;51.730;5.294;2023-05-10T07:27:22;76.50;;;34.80;;
41817;SDS011;27493;51.730;5.294;2023-05-10T07:29:47;85.90;;;34.80;;
41817;SDS011;27493;51.730;5.294;2023-05-10T07:32:12;73.73;;;34.20;;
41817;SDS011;27493;51.730;5.294;2023-05-10T07:34:37;69.03;;;33.40;;
41817;SDS011;27493;51.730;5.294;2023-05-10T07:37:02;74.23;;;33.50;;
41817;SDS011;27493;51.730;5.294;2023-05-10T07:39:28;70.20;;;33.80;;
41817;SDS011;27493;51.730;5.294;2023-05-10T07:41:53;68.90;;;33.80;;
41817;SDS011;27493;51.730;5.294;2023-05-10T07:44:18;66.10;;;33.37;;
41817;SDS011;27493;51.730;5.294;2023-05-10T07:46:45;67.40;;;34.57;;
41817;SDS011;27493;51.730;5.294;2023-05-10T07:49:10;69.80;;;35.07;;
41817;SDS011;27493;51.730;5.294;2023-05-10T07:51:35;65.73;;;34.37;;
41817;SDS011;27493;51.730;5.294;2023-05-10T07:54:01;61.03;;;32.27;;
41817;SDS011;27493;51.730;5.294;2023-05-10T07:56:28;63.50;;;34.60;;
41817;SDS011;27493;51.730;5.294;2023-05-10T07:59:03;59.00;;;33.23;;
41817;SDS011;27493;51.730;5.294;2023-05-10T08:01:30;66.27;;;34.37;;
41817;SDS011;27493;51.730;5.294;2023-05-10T08:03:56;59.60;;;33.13;;
41817;SDS011;27493;51.730;5.294;2023-05-10T08:06:21;62.23;;;34.40;;
41817;SDS011;27493;51.730;5.294;2023-05-10T08:08:47;57.53;;;34.90;;
41817;SDS011;27493;51.730;5.294;2023-05-10T08:11:17;60.20;;;32.73;;
41817;SDS011;27493;51.730;5.294;2023-05-10T08:13:43;58.83;;;32.37;;
41817;SDS011;27493;51.730;5.294;2023-05-10T08:16:08;53.97;;;31.77;;
41817;SDS011;27493;51.730;5.294;2023-05-10T08:18:33;57.87;;;33.63;;
41817;SDS011;27493;51.730;5.294;2023-05-10T08:20:59;50.37;;;30.77;;
41817;SDS011;27493;51.730;5.294;2023-05-10T08:23:24;49.13;;;29.47;;
41817;SDS011;27493;51.730;5.294;2023-05-10T08:25:49;50.97;;;28.20;;
41817;SDS011;27493;51.730;5.294;2023-05-10T08:28:14;45.47;;;28.90;;
41817;SDS011;27493;51.730;5.294;2023-05-10T08:30:40;45.70;;;29.17;;
41817;SDS011;27493;51.730;5.294;2023-05-10T08:33:05;47.27;;;27.67;;
41817;SDS011;27493;51.730;5.294;2023-05-10T08:35:30;43.07;;;26.70;;
41817;SDS011;27493;51.730;5.294;2023-05-10T08:37:56;44.60;;;26.67;;
41817;SDS011;27493;51.730;5.294;2023-05-10T08:40:21;39.87;;;24.77;;
41817;SDS011;27493;51.730;5.294;2023-05-10T08:43:05;40.60;;;23.70;;
41817;SDS011;27493;51.730;5.294;2023-05-10T08:45:32;33.67;;;22.30;;
41817;SDS011;27493;51.730;5.294;2023-05-10T08:47:57;34.80;;;20.80;;
41817;SDS011;27493;51.730;5.294;2023-05-10T08:50:23;28.90;;;19.67;;
41817;SDS011;27493;51.730;5.294;2023-05-10T08:52:50;29.00;;;19.27;;
41817;SDS011;27493;51.730;5.294;2023-05-10T08:55:17;29.50;;;19.23;;
41817;SDS011;27493;51.730;5.294;2023-05-10T08:57:43;28.67;;;19.43;;
41817;SDS011;27493;51.730;5.294;2023-05-10T09:00:08;29.40;;;18.57;;
41817;SDS011;27493;51.730;5.294;2023-05-10T09:02:34;28.53;;;16.47;;
41817;SDS011;27493;51.730;5.294;2023-05-10T09:05:00;25.00;;;16.27;;
41817;SDS011;27493;51.730;5.294;2023-05-10T09:07:25;32.10;;;16.10;;
41817;SDS011;27493;51.730;5.294;2023-05-10T09:09:51;23.03;;;14.83;;
41817;SDS011;27493;51.730;5.294;2023-05-10T09:12:17;22.90;;;15.47;;
41817;SDS011;27493;51.730;5.294;2023-05-10T09:14:42;26.37;;;15.50;;
41817;SDS011;27493;51.730;5.294;2023-05-10T09:17:09;25.40;;;15.67;;
41817;SDS011;27493;51.730;5.294;2023-05-10T09:19:35;22.60;;;15.40;;
41817;SDS011;27493;51.730;5.294;2023-05-10T09:22:00;27.43;;;14.87;;
41817;SDS011;27493;51.730;5.294;2023-05-10T09:24:27;19.87;;;13.53;;
41817;SDS011;27493;51.730;5.294;2023-05-10T09:26:52;18.17;;;12.33;;
41817;SDS011;27493;51.730;5.294;2023-05-10T09:29:17;15.77;;;12.50;;
41817;SDS011;27493;51.730;5.294;2023-05-10T09:31:43;16.60;;;10.87;;
41817;SDS011;27493;51.730;5.294;2023-05-10T09:34:10;14.63;;;9.20;;
41817;SDS011;27493;51.730;5.294;2023-05-10T09:36:35;13.80;;;8.10;;
41817;SDS011;27493;51.730;5.294;2023-05-10T09:39:00;12.60;;;9.50;;
41817;SDS011;27493;51.730;5.294;2023-05-10T09:41:25;15.80;;;10.87;;
41817;SDS011;27493;51.730;5.294;2023-05-10T09:43:52;15.20;;;11.13;;
41817;SDS011;27493;51.730;5.294;2023-05-10T09:46:19;15.10;;;11.60;;
41817;SDS011;27493;51.730;5.294;2023-05-10T09:48:45;16.90;;;11.27;;
41817;SDS011;27493;51.730;5.294;2023-05-10T09:51:18;18.33;;;12.13;;
41817;SDS011;27493;51.730;5.294;2023-05-10T09:53:43;15.73;;;11.37;;
41817;SDS011;27493;51.730;5.294;2023-05-10T09:56:09;16.23;;;11.53;;
41817;SDS011;27493;51.730;5.294;2023-05-10T09:58:36;17.87;;;12.00;;
41817;SDS011;27493;51.730;5.294;2023-05-10T10:01:01;15.00;;;11.90;;
41817;SDS011;27493;51.730;5.294;2023-05-10T10:03:27;17.93;;;11.03;;
41817;SDS011;27493;51.730;5.294;2023-05-10T10:05:54;23.37;;;11.13;;
41817;SDS011;27493;51.730;5.294;2023-05-10T10:08:20;18.00;;;10.77;;
41817;SDS011;27493;51.730;5.294;2023-05-10T10:10:46;14.50;;;9.93;;
41817;SDS011;27493;51.730;5.294;2023-05-10T10:13:11;13.23;;;9.63;;
41817;SDS011;27493;51.730;5.294;2023-05-10T10:15:37;12.53;;;10.03;;
41817;SDS011;27493;51.730;5.294;2023-05-10T10:18:02;15.00;;;9.80;;
41817;SDS011;27493;51.730;5.294;2023-05-10T10:20:29;14.17;;;10.93;;
41817;SDS011;27493;51.730;5.294;2023-05-10T10:22:54;14.27;;;9.90;;
41817;SDS011;27493;51.730;5.294;2023-05-10T10:25:20;19.10;;;10.80;;
41817;SDS011;27493;51.730;5.294;2023-05-10T10:30:39;16.17;;;10.90;;
41817;SDS011;27493;51.730;5.294;2023-05-10T10:35:37;13.67;;;8.63;;
41817;SDS011;27493;51.730;5.294;2023-05-10T10:38:02;10.90;;;7.87;;
41817;SDS011;27493;51.730;5.294;2023-05-10T10:40:34;11.07;;;7.30;;
41817;SDS011;27493;51.730;5.294;2023-05-10T10:45:43;10.40;;;7.30;;
41817;SDS011;27493;51.730;5.294;2023-05-10T10:48:22;13.80;;;9.10;;
41817;SDS011;27493;51.730;5.294;2023-05-10T10:50:47;16.30;;;9.37;;
41817;SDS011;27493;51.730;5.294;2023-05-10T10:53:12;11.23;;;9.00;;
41817;SDS011;27493;51.730;5.294;2023-05-10T10:55:47;14.73;;;10.10;;
41817;SDS011;27493;51.730;5.294;2023-05-10T10:58:28;16.37;;;11.23;;
41817;SDS011;27493;51.730;5.294;2023-05-10T11:00:59;14.37;;;10.77;;
41817;SDS011;27493;51.730;5.294;2023-05-10T11:03:33;13.23;;;9.67;;
41817;SDS011;27493;51.730;5.294;2023-05-10T11:05:58;13.50;;;9.90;;
41817;SDS011;27493;51.730;5.294;2023-05-10T11:08:27;12.87;;;9.93;;
41817;SDS011;27493;51.730;5.294;2023-05-10T11:10:54;12.63;;;9.90;;
41817;SDS011;27493;51.730;5.294;2023-05-10T11:13:42;16.10;;;11.53;;
41817;SDS011;27493;51.730;5.294;2023-05-10T11:16:11;13.63;;;11.10;;
41817;SDS011;27493;51.730;5.294;2023-05-10T11:18:37;17.23;;;12.20;;
41817;SDS011;27493;51.730;5.294;2023-05-10T11:21:02;16.20;;;12.27;;
41817;SDS011;27493;51.730;5.294;2023-05-10T11:23:47;14.93;;;11.57;;
41817;SDS011;27493;51.730;5.294;2023-05-10T11:26:12;18.07;;;11.30;;
41817;SDS011;27493;51.730;5.294;2023-05-10T11:28:44;14.93;;;11.67;;
41817;SDS011;27493;51.730;5.294;2023-05-10T11:31:10;12.73;;;10.97;;
41817;SDS011;27493;51.730;5.294;2023-05-10T11:33:47;13.07;;;10.83;;
41817;SDS011;27493;51.730;5.294;2023-05-10T11:36:16;13.20;;;11.63;;
41817;SDS011;27493;51.730;5.294;2023-05-10T11:38:42;15.53;;;11.63;;
41817;SDS011;27493;51.730;5.294;2023-05-10T11:41:10;14.50;;;11.63;;
41817;SDS011;27493;51.730;5.294;2023-05-10T11:43:36;14.60;;;11.77;;
41817;SDS011;27493;51.730;5.294;2023-05-10T11:46:03;14.57;;;11.87;;
41817;SDS011;27493;51.730;5.294;2023-05-10T11:48:29;15.03;;;11.37;;
41817;SDS011;27493;51.730;5.294;2023-05-10T11:50:54;13.60;;;11.97;;
41817;SDS011;27493;51.730;5.294;2023-05-10T11:53:21;13.77;;;11.43;;
41817;SDS011;27493;51.730;5.294;2023-05-10T11:55:47;14.83;;;11.83;;
41817;SDS011;27493;51.730;5.294;2023-05-10T11:58:12;14.53;;;12.33;;
41817;SDS011;27493;51.730;5.294;2023-05-10T12:00:37;13.03;;;11.70;;
41817;SDS011;27493;51.730;5.294;2023-05-10T12:03:03;12.90;;;10.73;;
41817;SDS011;27493;51.730;5.294;2023-05-10T12:05:31;10.67;;;9.63;;
41817;SDS011;27493;51.730;5.294;2023-05-10T12:08:10;13.90;;;10.07;;
41817;SDS011;27493;51.730;5.294;2023-05-10T12:10:35;14.57;;;10.17;;
41817;SDS011;27493;51.730;5.294;2023-05-10T12:13:00;12.93;;;10.63;;
41817;SDS011;27493;51.730;5.294;2023-05-10T12:15:25;12.77;;;10.43;;
41817;SDS011;27493;51.730;5.294;2023-05-10T12:17:52;13.17;;;9.80;;
41817;SDS011;27493;51.730;5.294;2023-05-10T12:20:18;11.03;;;8.87;;
41817;SDS011;27493;51.730;5.294;2023-05-10T12:22:45;9.40;;;7.47;;
41817;SDS011;27493;51.730;5.294;2023-05-10T12:25:11;9.37;;;8.47;;
41817;SDS011;27493;51.730;5.294;2023-05-10T12:27:36;9.40;;;7.27;;
41817;SDS011;27493;51.730;5.294;2023-05-10T12:30:01;7.70;;;6.83;;
41817;SDS011;27493;51.730;5.294;2023-05-10T12:32:41;7.43;;;6.60;;
41817;SDS011;27493;51.730;5.294;2023-05-10T12:35:06;10.30;;;6.50;;
41817;SDS011;27493;51.730;5.294;2023-05-10T12:37:31;9.70;;;6.00;;
41817;SDS011;27493;51.730;5.294;2023-05-10T12:42:31;7.80;;;6.10;;
41817;SDS011;27493;51.730;5.294;2023-05-10T12:44:57;7.67;;;5.30;;
41817;SDS011;27493;51.730;5.294;2023-05-10T12:47:22;11.50;;;5.30;;
41817;SDS011;27493;51.730;5.294;2023-05-10T12:49:47;6.23;;;4.60;;
41817;SDS011;27493;51.730;5.294;2023-05-10T12:52:12;6.17;;;4.60;;
41817;SDS011;27493;51.730;5.294;2023-05-10T12:54:38;7.33;;;5.10;;
41817;SDS011;27493;51.730;5.294;2023-05-10T12:57:03;9.23;;;6.50;;
41817;SDS011;27493;51.730;5.294;2023-05-10T12:59:28;9.60;;;8.60;;
41817;SDS011;27493;51.730;5.294;2023-05-10T13:01:53;10.50;;;9.60;;
41817;SDS011;27493;51.730;5.294;2023-05-10T13:04:18;10.80;;;9.70;;
41817;SDS011;27493;51.730;5.294;2023-05-10T13:06:44;11.80;;;10.37;;
41817;SDS011;27493;51.730;5.294;2023-05-10T13:09:09;11.07;;;9.97;;
41817;SDS011;27493;51.730;5.294;2023-05-10T13:11:34;10.27;;;9.23;;
41817;SDS011;27493;51.730;5.294;2023-05-10T13:14:00;12.17;;;10.37;;
41817;SDS011;27493;51.730;5.294;2023-05-10T13:16:25;11.40;;;10.27;;
41817;SDS011;27493;51.730;5.294;2023-05-10T13:18:50;12.40;;;11.10;;
41817;SDS011;27493;51.730;5.294;2023-05-10T13:21:15;12.27;;;11.03;;
41817;SDS011;27493;51.730;5.294;2023-05-10T13:23:41;12.27;;;10.97;;
41817;SDS011;27493;51.730;5.294;2023-05-10T13:26:06;12.00;;;10.90;;
41817;SDS011;27493;51.730;5.294;2023-05-10T13:28:31;11.90;;;10.70;;
41817;SDS011;27493;51.730;5.294;2023-05-10T13:30:57;12.43;;;10.90;;
41817;SDS011;27493;51.730;5.294;2023-05-10T13:33:22;12.17;;;10.93;;
41817;SDS011;27493;51.730;5.294;2023-05-10T13:35:47;13.00;;;11.60;;
41817;SDS011;27493;51.730;5.294;2023-05-10T13:38:12;12.37;;;11.07;;
41817;SDS011;27493;51.730;5.294;2023-05-10T13:40:38;14.17;;;12.77;;
41817;SDS011;27493;51.730;5.294;2023-05-10T13:43:03;13.67;;;12.27;;
41817;SDS011;27493;51.730;5.294;2023-05-10T13:45:28;14.23;;;12.80;;
41817;SDS011;27493;51.730;5.294;2023-05-10T13:47:54;14.63;;;13.20;;
41817;SDS011;27493;51.730;5.294;2023-05-10T13:50:19;15.43;;;13.83;;
41817;SDS011;27493;51.730;5.294;2023-05-10T13:52:44;15.77;;;14.17;;
41817;SDS011;27493;51.730;5.294;2023-05-10T13:55:09;15.70;;;14.03;;
41817;SDS011;27493;51.730;5.294;2023-05-10T13:57:38;16.20;;;13.93;;
41817;SDS011;27493;51.730;5.294;2023-05-10T14:00:03;17.40;;;15.23;;
41817;SDS011;27493;51.730;5.294;2023-05-10T14:02:29;17.00;;;15.03;;
41817;SDS011;27493;51.730;5.294;2023-05-10T14:04:54;16.73;;;15.03;;
41817;SDS011;27493;51.730;5.294;2023-05-10T14:07:20;17.87;;;15.63;;
41817;SDS011;27493;51.730;5.294;2023-05-10T14:09:45;18.53;;;15.90;;
41817;SDS011;27493;51.730;5.294;2023-05-10T14:12:10;18.80;;;16.50;;
41817;SDS011;27493;51.730;5.294;2023-05-10T14:14:36;19.70;;;16.70;;
41817;SDS011;27493;51.730;5.294;2023-05-10T14:17:01;17.73;;;15.47;;
41817;SDS011;27493;51.730;5.294;2023-05-10T14:19:26;19.60;;;16.00;;
41817;SDS011;27493;51.730;5.294;2023-05-10T14:21:52;19.43;;;16.03;;
41817;SDS011;27493;51.730;5.294;2023-05-10T14:24:17;18.53;;;16.63;;
41817;SDS011;27493;51.730;5.294;2023-05-10T14:26:43;17.17;;;15.40;;
41817;SDS011;27493;51.730;5.294;2023-05-10T14:29:08;18.00;;;16.07;;
41817;SDS011;27493;51.730;5.294;2023-05-10T14:31:33;17.33;;;15.57;;
41817;SDS011;27493;51.730;5.294;2023-05-10T14:33:58;18.10;;;16.03;;
41817;SDS011;27493;51.730;5.294;2023-05-10T14:36:24;16.77;;;14.97;;
41817;SDS011;27493;51.730;5.294;2023-05-10T14:38:49;16.90;;;15.10;;
41817;SDS011;27493;51.730;5.294;2023-05-10T14:41:15;19.47;;;14.83;;
41817;SDS011;27493;51.730;5.294;2023-05-10T14:43:42;18.53;;;15.50;;
41817;SDS011;27493;51.730;5.294;2023-05-10T14:46:07;18.97;;;16.60;;